Time;durP1;ratioP1;P1;durP2;ratioP2;P2;SDS_P1;SDS_P2;PMS_P1;PMS_P2;Temp;Humidity;BMP_temperature;BMP_pressure;BME280_temperature;BME280_humidity;BME280_pressure;Samples;Min_cycle;Max_cycle;Signal;HPM_P1;HPM_P2
2021/12/24 00:01:35;;;;;;;67.30;23.98;;;5.40;99.90;;;;;;5067900;28;20048;-48
2021/12/24 00:04:01;;;;;;;63.35;24.73;;;;;;;;;;5066062;28;20509;-45
2021/12/24 00:06:27;;;;;;;59.90;23.48;;;;;;;;;;5067568;28;20592;-48
2021/12/24 00:08:55;;;;;;;78.53;26.00;;;;;;;;;;5067539;28;20059;-48
2021/12/24 00:11:21;;;;;;;58.65;23.50;;;;;;;;;;5067465;28;20052;-45
2021/12/24 00:13:50;;;;;;;71.45;25.00;;;;;;;;;;5067418;28;20109;-48
2021/12/24 00:16:24;;;;;;;59.05;22.70;;;;;;;;;;5067616;28;20063;-43
2021/12/24 00:37:21;;;;;;;62.00;22.20;;;;;;;;;;5067952;28;20068;-43
2021/12/24 00:39:56;;;;;;;65.47;21.75;;;5.60;99.90;;;;;;5067747;28;20106;-48
2021/12/24 00:42:25;;;;;;;62.80;21.92;;;5.60;99.90;;;;;;5067801;28;20044;-49
2021/12/24 00:44:51;;;;;;;57.25;21.92;;;;;;;;;;5067174;28;20053;-47
2021/12/24 00:47:17;;;;;;;67.45;22.08;;;;;;;;;;5066961;28;20041;-47
2021/12/24 00:49:43;;;;;;;59.33;20.35;;;;;;;;;;5066885;28;20083;-48
2021/12/24 00:52:33;;;;;;;61.70;20.88;;;;;;;;;;5067004;28;20040;-47
2021/12/24 00:55:09;;;;;;;56.08;19.90;;;5.70;99.90;;;;;;5067002;28;20045;-48
2021/12/24 00:57:40;;;;;;;48.63;18.90;;;5.80;99.90;;;;;;5066447;28;20540;-48
2021/12/24 01:00:14;;;;;;;38.50;16.90;;;5.60;99.90;;;;;;5066784;28;20048;-47
2021/12/24 01:02:43;;;;;;;43.63;16.98;;;5.80;99.90;;;;;;5066356;28;20140;-46
2021/12/24 01:05:10;;;;;;;46.13;17.83;;;5.90;99.90;;;;;;5065305;28;20135;-48
2021/12/24 01:07:36;;;;;;;45.35;18.27;;;;;;;;;;5065093;28;20063;-46
2021/12/24 01:10:04;;;;;;;58.03;19.35;;;5.70;99.90;;;;;;5066327;28;20087;-49
2021/12/24 01:12:31;;;;;;;44.17;16.83;;;;;;;;;;5066471;28;20561;-47
2021/12/24 01:14:57;;;;;;;47.83;17.80;;;;;;;;;;5066523;28;20140;-48
2021/12/24 01:17:44;;;;;;;49.03;17.05;;;;;;;;;;5066509;28;20102;-49
2021/12/24 01:20:37;;;;;;;39.17;15.75;;;6.00;99.90;;;;;;5066389;28;20052;-48
2021/12/24 01:25:50;;;;;;;34.33;14.15;;;6.00;99.90;;;;;;5066313;28;20592;-47
2021/12/24 01:28:41;;;;;;;30.65;13.73;;;;;;;;;;5066343;28;20044;-48
2021/12/24 01:39:39;;;;;;;32.90;13.45;;;;;;;;;;5066876;28;20059;-49
2021/12/24 01:42:48;;;;;;;36.47;12.82;;;6.20;99.90;;;;;;5067122;28;20052;-43
2021/12/24 01:44:55;;;;;;;27.58;12.15;;;;;;;;;;5062139;28;20409;-48
2021/12/24 01:47:23;;;;;;;33.38;13.02;;;6.10;99.90;;;;;;5070422;28;20041;-45
2021/12/24 01:49:49;;;;;;;29.92;12.65;;;;;;;;;;5070597;28;20174;-48
2021/12/24 01:52:16;;;;;;;29.90;13.15;;;;;;;;;;5070517;28;20041;-48
2021/12/24 01:54:45;;;;;;;26.73;12.30;;;6.20;99.90;;;;;;5070493;28;20048;-45
2021/12/24 01:57:14;;;;;;;40.42;14.13;;;6.10;99.90;;;;;;5070529;28;20056;-44
2021/12/24 01:59:41;;;;;;;31.73;12.85;;;6.10;99.90;;;;;;5070090;28;20058;-46
2021/12/24 02:02:07;;;;;;;36.53;13.70;;;;;;;;;;5070394;28;20119;-47
2021/12/24 02:04:33;;;;;;;37.97;13.05;;;;;;;;;;5069950;28;20119;-48
2021/12/24 02:06:59;;;;;;;38.30;13.88;;;;;;;;;;5070381;28;20178;-44
2021/12/24 02:09:25;;;;;;;31.23;12.98;;;;;;;;;;5069971;28;20609;-47
2021/12/24 02:11:52;;;;;;;37.47;13.25;;;6.40;99.90;;;;;;5070100;28;20040;-44
2021/12/24 02:14:21;;;;;;;37.75;13.38;;;6.30;99.90;;;;;;5070203;28;20178;-47
2021/12/24 02:30:16;;;;;;;40.70;15.15;;;;;;;;;;5069511;28;20060;-47
2021/12/24 02:32:42;;;;;;;34.58;14.35;;;6.60;99.90;;;;;;5068293;28;20119;-43
2021/12/24 02:35:09;;;;;;;33.33;14.00;;;6.50;99.90;;;;;;5069221;28;20595;-47
2021/12/24 02:37:35;;;;;;;36.58;14.30;;;;;;;;;;5067721;28;20516;-46
2021/12/24 02:40:04;;;;;;;37.20;14.05;;;6.50;99.90;;;;;;5069233;28;20120;-46
2021/12/24 02:42:34;;;;;;;36.38;13.65;;;6.70;99.90;;;;;;5068866;28;20048;-48
2021/12/24 02:45:00;;;;;;;38.15;14.90;;;;;;;;;;5069296;28;20048;-47
2021/12/24 02:47:41;;;;;;;52.72;17.50;;;;;;;;;;5069360;28;20056;-47
2021/12/24 02:55:44;;;;;;;48.05;17.48;;;6.70;99.90;;;;;;5005536;28;20061;-46
2021/12/24 02:58:11;;;;;;;61.72;19.48;;;;;;;;;;5006224;28;20054;-48
2021/12/24 03:00:37;;;;;;;57.28;18.63;;;;;;;;;;5006098;28;20042;-46
2021/12/24 03:03:04;;;;;;;51.60;19.60;;;6.80;99.90;;;;;;5006105;28;20097;-48
2021/12/24 03:05:30;;;;;;;64.93;20.33;;;6.90;99.90;;;;;;5006389;28;20075;-45
2021/12/24 03:07:56;;;;;;;53.65;18.13;;;;;;;;;;5006951;28;20049;-47
2021/12/24 03:10:22;;;;;;;67.88;19.13;;;6.90;99.90;;;;;;5006599;28;20504;-47
2021/12/24 03:12:51;;;;;;;71.15;20.80;;;6.90;99.90;;;;;;5006815;28;20041;-45
2021/12/24 03:15:17;;;;;;;99.32;23.55;;;;;;;;;;5006755;28;20645;-46
2021/12/24 03:17:49;;;;;;;96.15;23.25;;;7.00;99.90;;;;;;5006582;28;20160;-45
2021/12/24 03:20:15;;;;;;;;;;;6.90;99.90;;;;;;5007806;28;20046;-47
2021/12/24 03:23:03;;;;;;;108.20;23.70;;;;;;;;;;5006440;28;20622;-46
2021/12/24 03:25:29;;;;;;;102.95;24.17;;;;;;;;;;5006495;28;20481;-47
2021/12/24 03:27:55;;;;;;;123.95;25.52;;;;;;;;;;5006860;28;20398;-46
2021/12/24 03:30:22;;;;;;;103.53;22.17;;;7.00;99.90;;;;;;5046763;28;20098;-46
2021/12/24 03:32:51;;;;;;;102.78;25.95;;;7.30;99.90;;;;;;5068830;28;20131;-49
2021/12/24 03:35:17;;;;;;;100.07;25.10;;;;;;;;;;5068679;28;20548;-45
2021/12/24 03:37:43;;;;;;;109.70;24.58;;;;;;;;;;5068278;28;20053;-45
2021/12/24 03:40:11;;;;;;;119.50;25.85;;;7.20;99.90;;;;;;5068293;28;20048;-46
2021/12/24 03:42:39;;;;;;;87.30;22.23;;;;;;;;;;5067775;28;20520;-46
2021/12/24 03:45:21;;;;;;;106.25;23.92;;;7.40;99.90;;;;;;5067578;28;20127;-47
2021/12/24 03:47:54;;;;;;;104.35;25.02;;;;;;;;;;5067579;28;20730;-46
2021/12/24 03:50:20;;;;;;;125.57;25.63;;;;;;;;;;5067608;28;20087;-44
2021/12/24 03:53:05;;;;;;;103.53;24.73;;;;;;;;;;5067802;28;20679;-43
2021/12/24 03:55:33;;;;;;;114.53;25.05;;;7.30;99.90;;;;;;5067915;28;20145;-44
2021/12/24 03:57:59;;;;;;;94.85;22.48;;;;;;;;;;5067938;28;20050;-49
2021/12/24 04:00:29;;;;;;;99.28;23.70;;;6.20;99.90;;;;;;5066352;28;20080;-49
2021/12/24 04:02:55;;;;;;;94.07;24.85;;;;;;;;;;5067266;28;20063;-48
2021/12/24 04:05:22;;;;;;;100.53;25.60;;;;;;;;;;5067002;28;20052;-48
2021/12/24 04:07:48;;;;;;;116.60;26.83;;;;;;;;;;5066433;28;20081;-49
2021/12/24 04:10:31;;;;;;;115.18;27.77;;;;;;;;;;5067518;28;20044;-48
2021/12/24 04:12:58;;;;;;;96.45;26.65;;;7.50;99.90;;;;;;5067354;28;20407;-45
2021/12/24 04:15:24;;;;;;;97.40;25.98;;;;;;;;;;5067320;28;20049;-45
2021/12/24 04:17:50;;;;;;;106.78;27.45;;;7.50;99.90;;;;;;5067061;28;20040;-43
2021/12/24 04:25:48;;;;;;;95.03;29.17;;;;;;;;;;5067292;28;20562;-46
2021/12/24 04:28:13;;;;;;;101.28;29.40;;;7.50;99.90;;;;;;5067271;28;20102;-47
2021/12/24 04:30:45;;;;;;;103.05;30.45;;;;;;;;;;5065863;28;20037;-45
2021/12/24 04:33:21;;;;;;;88.30;31.42;;;;;;;;;;5069093;28;20678;-48
2021/12/24 04:35:58;;;;;;;95.28;30.35;;;7.50;99.90;;;;;;5085296;28;20592;-45
2021/12/24 05:03:37;;;;;;;76.85;27.17;;;;;;;;;;4946152;29;20143;-46
2021/12/24 05:11:17;;;;;;;81.45;29.98;;;7.90;99.90;;;;;;4945953;29;19999;-49
2021/12/24 05:13:43;;;;;;;83.25;30.70;;;;;;;;;;4945597;28;20332;-45
2021/12/24 05:16:40;;;;;;;86.65;32.35;;;;;;;;;;4945603;28;20047;-50
2021/12/24 05:21:44;;;;;;;91.28;31.77;;;7.60;99.90;;;;;;4968883;28;20524;-45
2021/12/24 05:24:12;;;;;;;79.03;29.52;;;7.70;99.90;;;;;;4968917;28;20063;-48
2021/12/24 05:26:40;;;;;;;79.28;30.70;;;7.70;99.90;;;;;;4993725;28;20056;-50
2021/12/24 05:29:06;;;;;;;83.03;32.63;;;7.80;99.90;;;;;;5008303;28;20155;-44
2021/12/24 05:31:35;;;;;;;86.00;30.38;;;7.80;99.90;;;;;;5008401;28;20160;-44
2021/12/24 05:34:01;;;;;;;82.32;31.88;;;7.90;99.90;;;;;;5007668;28;20050;-46
2021/12/24 05:36:27;;;;;;;84.03;30.95;;;;;;;;;;5012947;28;20046;-50
2021/12/24 05:38:56;;;;;;;72.00;29.90;;;7.70;99.90;;;;;;5090250;28;20040;-49
2021/12/24 05:41:23;;;;;;;71.13;27.85;;;7.80;99.90;;;;;;5089273;28;20094;-47
2021/12/24 05:43:50;;;;;;;75.30;28.02;;;7.80;99.90;;;;;;5090131;28;20109;-48
2021/12/24 05:46:16;;;;;;;62.95;25.05;;;7.80;99.90;;;;;;5090295;28;20044;-48
2021/12/24 05:48:41;;;;;;;71.15;26.33;;;7.70;99.90;;;;;;5090015;28;20048;-46
2021/12/24 05:51:08;;;;;;;67.47;26.65;;;;;;;;;;5090340;28;20135;-47
2021/12/24 05:53:37;;;;;;;57.25;23.45;;;7.80;99.90;;;;;;5089946;28;20110;-46
2021/12/24 05:56:03;;;;;;;63.70;22.65;;;7.80;99.90;;;;;;5089378;28;20115;-46
2021/12/24 05:58:29;;;;;;;56.65;22.00;;;7.70;99.90;;;;;;5089997;28;20047;-47
2021/12/24 06:00:57;;;;;;;62.13;22.45;;;7.60;99.90;;;;;;5090151;28;20131;-49
2021/12/24 06:03:23;;;;;;;49.47;20.05;;;7.70;99.90;;;;;;5105252;28;20060;-47
2021/12/24 06:05:49;;;;;;;49.30;17.58;;;;;;;;;;5090075;28;20052;-47
2021/12/24 06:08:15;;;;;;;46.20;18.88;;;7.80;99.90;;;;;;5089837;28;20126;-44
2021/12/24 06:10:42;;;;;;;48.42;17.15;;;7.80;99.90;;;;;;5089727;28;20143;-48
2021/12/24 06:13:08;;;;;;;51.53;17.40;;;7.60;99.90;;;;;;5089966;28;20055;-48
2021/12/24 06:15:45;;;;;;;49.70;16.38;;;7.50;99.90;;;;;;5089870;28;20400;-50
2021/12/24 06:18:20;;;;;;;52.83;17.73;;;7.70;99.90;;;;;;5088263;28;20577;-50
2021/12/24 06:20:46;;;;;;;59.92;16.55;;;7.70;99.90;;;;;;5089836;28;20080;-45
2021/12/24 06:23:12;;;;;;;45.38;16.35;;;7.80;99.90;;;;;;5090689;28;20097;-44
2021/12/24 06:25:38;;;;;;;47.47;16.25;;;7.80;99.90;;;;;;5090376;28;20047;-49
2021/12/24 06:28:06;;;;;;;41.45;15.38;;;7.70;99.90;;;;;;5090377;28;20048;-46
2021/12/24 06:30:32;;;;;;;46.50;15.05;;;7.60;99.90;;;;;;5089080;28;20048;-45
2021/12/24 06:32:59;;;;;;;37.92;14.02;;;7.80;99.90;;;;;;5090109;28;20474;-47
2021/12/24 06:35:27;;;;;;;46.30;15.70;;;7.70;99.90;;;;;;5090351;28;20044;-44
2021/12/24 06:37:56;;;;;;;45.83;15.90;;;7.70;99.90;;;;;;5090300;28;20044;-44
2021/12/24 06:40:22;;;;;;;43.10;15.35;;;;;;;;;;5090135;28;20458;-46
2021/12/24 06:42:48;;;;;;;46.35;16.08;;;7.80;99.90;;;;;;5089850;28;20040;-49
2021/12/24 06:45:19;;;;;;;44.45;16.45;;;;;;;;;;5090057;28;20051;-48
2021/12/24 06:47:45;;;;;;;45.15;15.82;;;7.80;99.90;;;;;;5089290;28;20753;-46
2021/12/24 06:50:11;;;;;;;42.17;15.07;;;7.70;99.90;;;;;;5089206;28;20504;-48
2021/12/24 06:52:37;;;;;;;45.17;16.08;;;;;;;;;;5089115;28;20085;-44
2021/12/24 06:55:03;;;;;;;43.10;15.18;;;;;;;;;;5088652;28;20099;-44
2021/12/24 06:57:31;;;;;;;37.05;13.75;;;7.60;99.90;;;;;;5089058;28;20048;-47
2021/12/24 06:59:57;;;;;;;48.72;16.33;;;;;;;;;;5072046;28;20082;-48
2021/12/24 07:02:23;;;;;;;47.58;14.88;;;7.70;99.90;;;;;;5069057;28;20044;-45
2021/12/24 07:04:49;;;;;;;47.78;15.52;;;7.60;99.90;;;;;;5068809;28;20060;-48
2021/12/24 07:07:15;;;;;;;40.70;13.05;;;;;;;;;;5068041;28;20043;-43
2021/12/24 07:09:44;;;;;;;35.45;13.77;;;;;;;;;;5069118;28;20393;-46
2021/12/24 07:12:15;;;;;;;43.20;14.20;;;7.60;99.90;;;;;;5069066;28;20094;-44
2021/12/24 07:14:41;;;;;;;37.72;12.82;;;7.70;99.90;;;;;;5068744;28;20068;-49
2021/12/24 07:17:08;;;;;;;36.22;12.68;;;7.70;99.90;;;;;;5068930;28;20091;-44
2021/12/24 07:19:34;;;;;;;40.17;13.68;;;7.70;99.90;;;;;;5068890;28;20087;-48
2021/12/24 07:22:00;;;;;;;36.70;12.65;;;;;;;;;;5068697;28;20102;-45
2021/12/24 07:24:26;;;;;;;41.40;12.73;;;;;;;;;;5068951;28;20044;-47
2021/12/24 07:26:52;;;;;;;33.33;12.65;;;7.60;99.90;;;;;;5068439;28;20611;-50
2021/12/24 07:29:18;;;;;;;37.65;11.88;;;7.60;99.90;;;;;;5068637;28;20554;-49
2021/12/24 07:31:44;;;;;;;35.17;11.15;;;7.60;99.90;;;;;;5068684;28;20044;-43
2021/12/24 07:34:11;;;;;;;28.27;10.25;;;7.50;99.90;;;;;;5083426;28;20421;-48
2021/12/24 07:36:37;;;;;;;29.92;10.15;;;;;;;;;;5068749;28;20048;-45
2021/12/24 07:39:04;;;;;;;29.10;10.32;;;7.60;99.90;;;;;;5068454;28;20456;-46
2021/12/24 07:41:31;;;;;;;39.05;11.50;;;7.50;99.90;;;;;;5068781;28;20806;-44
2021/12/24 07:43:57;;;;;;;31.55;9.90;;;7.50;99.90;;;;;;5068979;28;20076;-50
2021/12/24 07:46:30;;;;;;;29.70;10.25;;;7.60;99.90;;;;;;5069136;28;20703;-47
2021/12/24 07:49:02;;;;;;;30.13;10.05;;;;;;;;;;5067304;28;20655;-46
2021/12/24 07:54:12;;;;;;;32.78;9.75;;;;;;;;;;5068294;28;20090;-46
2021/12/24 07:56:38;;;;;;;27.38;9.02;;;7.70;99.90;;;;;;5068822;28;20048;-47
2021/12/24 07:59:04;;;;;;;32.53;9.85;;;7.60;99.90;;;;;;5068935;28;20044;-45
2021/12/24 08:01:30;;;;;;;32.25;9.98;;;7.70;99.90;;;;;;5068816;28;20443;-45
2021/12/24 08:03:56;;;;;;;32.55;9.55;;;7.60;99.90;;;;;;5066927;28;20048;-46
2021/12/24 08:06:26;;;;;;;25.58;9.15;;;7.70;99.90;;;;;;5068918;28;20117;-46
2021/12/24 08:08:52;;;;;;;37.08;9.98;;;7.70;99.90;;;;;;5068432;28;20052;-49
2021/12/24 08:11:18;;;;;;;36.03;10.68;;;7.80;99.90;;;;;;5068437;28;20044;-47
2021/12/24 08:13:43;;;;;;;33.70;10.40;;;7.70;99.90;;;;;;5067188;28;20492;-45
2021/12/24 08:16:10;;;;;;;35.42;9.77;;;7.70;99.90;;;;;;5068488;28;20046;-47
2021/12/24 08:18:37;;;;;;;33.35;9.93;;;7.60;99.90;;;;;;5067806;28;20388;-45
2021/12/24 08:21:04;;;;;;;33.60;9.98;;;7.60;99.90;;;;;;5067496;28;20044;-50
2021/12/24 08:23:30;;;;;;;32.85;10.80;;;7.70;99.90;;;;;;5067642;28;20052;-45
2021/12/24 08:25:59;;;;;;;29.48;9.15;;;7.70;99.90;;;;;;5067393;28;20044;-48
2021/12/24 08:28:26;;;;;;;28.67;9.50;;;7.50;99.90;;;;;;5067735;28;20052;-47
2021/12/24 08:30:52;;;;;;;34.75;9.80;;;7.60;99.90;;;;;;5067224;28;20564;-46
2021/12/24 08:33:20;;;;;;;34.85;9.38;;;7.50;99.90;;;;;;5067519;28;20400;-48
2021/12/24 08:35:46;;;;;;;32.20;9.68;;;7.70;99.90;;;;;;5066725;28;20045;-47
2021/12/24 08:38:12;;;;;;;36.20;8.68;;;;;;;;;;5066701;28;20059;-50
2021/12/24 08:40:38;;;;;;;33.45;9.43;;;;;;;;;;5067420;28;20068;-48
2021/12/24 08:43:06;;;;;;;32.55;8.55;;;7.50;99.90;;;;;;5067099;28;20497;-48
2021/12/24 08:45:32;;;;;;;28.63;7.47;;;;;;;;;;5066893;28;20525;-47
2021/12/24 08:47:58;;;;;;;27.15;7.72;;;;;;;;;;5066447;28;20048;-47
2021/12/24 08:50:24;;;;;;;19.90;7.10;;;7.70;99.90;;;;;;5087344;28;20128;-48
2021/12/24 08:52:50;;;;;;;23.65;7.97;;;7.50;99.90;;;;;;5086536;28;20524;-48
2021/12/24 08:55:16;;;;;;;20.00;6.72;;;7.60;99.90;;;;;;5086181;28;20491;-44
2021/12/24 08:57:43;;;;;;;24.73;7.03;;;7.60;99.90;;;;;;5087293;28;20822;-48
2021/12/24 09:00:13;;;;;;;24.23;7.30;;;7.60;99.90;;;;;;5088130;28;20072;-44
2021/12/24 09:02:40;;;;;;;24.85;8.30;;;;;;;;;;5087784;28;20048;-47
2021/12/24 09:05:07;;;;;;;21.38;6.78;;;7.60;99.90;;;;;;5087939;28;20580;-49
2021/12/24 09:07:33;;;;;;;18.30;6.60;;;7.60;99.90;;;;;;5087890;28;20058;-46
2021/12/24 09:09:59;;;;;;;19.38;6.40;;;7.50;99.90;;;;;;5087756;28;20044;-47
2021/12/24 09:12:26;;;;;;;17.15;6.13;;;7.60;99.90;;;;;;5087979;28;20495;-48
2021/12/24 09:14:53;;;;;;;17.58;6.65;;;7.60;99.90;;;;;;5087955;28;20043;-43
2021/12/24 09:17:21;;;;;;;14.23;5.53;;;7.50;99.90;;;;;;5087947;28;20090;-47
2021/12/24 09:19:50;;;;;;;18.98;6.50;;;7.60;99.90;;;;;;5087727;28;20032;-43
2021/12/24 09:22:18;;;;;;;15.82;6.15;;;7.50;99.90;;;;;;5088080;28;20463;-50
2021/12/24 09:24:46;;;;;;;22.10;7.10;;;7.70;99.90;;;;;;5087407;28;20040;-47
2021/12/24 09:27:13;;;;;;;24.75;6.72;;;7.50;99.90;;;;;;5087920;28;20052;-44
2021/12/24 09:29:39;;;;;;;19.08;6.53;;;7.60;99.90;;;;;;5087896;28;20083;-43
2021/12/24 09:32:06;;;;;;;20.45;7.15;;;7.40;99.90;;;;;;5087682;28;20048;-45
2021/12/24 09:34:31;;;;;;;21.38;7.38;;;7.40;99.90;;;;;;5087402;28;20110;-43
2021/12/24 09:36:57;;;;;;;17.77;6.68;;;7.50;99.90;;;;;;5087336;28;20056;-44
2021/12/24 09:39:23;;;;;;;14.20;5.70;;;7.60;99.90;;;;;;5086848;28;20044;-48
2021/12/24 09:41:49;;;;;;;14.98;5.20;;;;;;;;;;5085914;28;20099;-44
2021/12/24 09:44:15;;;;;;;13.43;5.05;;;;;;;;;;5086960;28;20048;-45
2021/12/24 09:46:42;;;;;;;14.25;4.63;;;7.50;99.90;;;;;;5086561;28;20096;-44
2021/12/24 09:49:13;;;;;;;10.25;4.25;;;7.60;99.90;;;;;;5087202;28;20527;-44
2021/12/24 09:51:42;;;;;;;9.25;4.35;;;7.60;99.90;;;;;;5087423;28;20123;-45
2021/12/24 09:54:13;;;;;;;9.02;3.55;;;7.60;99.90;;;;;;5087308;28;20070;-44
2021/12/24 09:56:40;;;;;;;9.13;3.53;;;7.30;99.90;;;;;;5087430;28;20515;-45
2021/12/24 09:59:06;;;;;;;8.48;3.50;;;7.50;99.90;;;;;;5087345;28;20032;-45
2021/12/24 10:01:35;;;;;;;6.43;3.45;;;7.30;99.90;;;;;;5087404;28;20071;-45
2021/12/24 10:04:30;;;;;;;4.38;2.15;;;7.20;99.90;;;;;;5087975;28;20056;-44
2021/12/24 10:07:03;;;;;;;3.90;2.10;;;6.90;99.90;;;;;;5088671;28;20048;-45
2021/12/24 10:09:41;;;;;;;3.38;1.67;;;6.80;99.90;;;;;;5090973;28;20140;-48
2021/12/24 10:12:17;;;;;;;4.15;2.15;;;6.70;99.90;;;;;;5090910;28;20474;-45
2021/12/24 10:14:59;;;;;;;3.90;2.20;;;6.50;99.90;;;;;;5091079;28;20051;-47
2021/12/24 10:17:30;;;;;;;4.70;2.60;;;6.40;99.90;;;;;;5090994;28;20040;-44
2021/12/24 10:19:59;;;;;;;4.30;2.40;;;6.30;99.90;;;;;;5083053;28;20115;-46
2021/12/24 10:22:25;;;;;;;4.80;2.75;;;6.40;99.90;;;;;;5071341;28;20052;-46
2021/12/24 10:25:05;;;;;;;5.95;2.60;;;6.30;99.90;;;;;;5071303;28;20040;-49
2021/12/24 10:27:33;;;;;;;6.25;2.95;;;6.20;99.90;;;;;;5070927;28;20095;-44
2021/12/24 10:30:13;;;;;;;8.68;5.40;;;6.30;99.90;;;;;;5070254;28;20070;-48
2021/12/24 10:32:42;;;;;;;7.15;4.85;;;6.10;99.90;;;;;;5069269;28;20119;-48
2021/12/24 10:35:27;;;;;;;6.28;3.45;;;4.90;99.90;;;;;;5070317;28;20088;-46
2021/12/24 10:38:12;;;;;;;6.50;3.58;;;6.20;99.90;;;;;;5070389;28;20057;-45
2021/12/24 10:41:04;;;;;;;5.78;3.40;;;6.10;99.90;;;;;;5070313;28;20059;-45
2021/12/24 10:43:35;;;;;;;5.90;3.50;;;6.20;99.90;;;;;;5070292;28;20412;-47
2021/12/24 10:46:17;;;;;;;7.35;4.40;;;6.10;99.90;;;;;;5069892;28;20133;-47
2021/12/24 10:49:06;;;;;;;6.85;4.07;;;6.10;99.90;;;;;;5070436;28;20056;-45
2021/12/24 10:51:59;;;;;;;5.88;3.78;;;6.00;99.90;;;;;;5070181;28;20048;-44
2021/12/24 10:54:25;;;;;;;4.90;2.30;;;;;;;;;;5069918;28;20059;-45
2021/12/24 10:56:53;;;;;;;7.85;5.47;;;;;;;;;;5069396;28;20045;-46
2021/12/24 10:59:40;;;;;;;8.88;5.65;;;5.90;99.90;;;;;;5069258;28;20532;-47
2021/12/24 11:02:12;;;;;;;4.38;1.92;;;6.10;99.90;;;;;;5069054;28;20075;-45
2021/12/24 11:04:38;;;;;;;6.63;3.78;;;;;;;;;;5069070;28;20061;-45
2021/12/24 11:07:37;;;;;;;7.07;3.70;;;6.00;99.90;;;;;;5069264;28;20509;-44
2021/12/24 11:10:14;;;;;;;5.22;2.90;;;5.80;99.90;;;;;;5069095;28;20040;-50
2021/12/24 11:12:45;;;;;;;4.20;2.25;;;5.90;99.90;;;;;;5069068;28;20571;-45
2021/12/24 11:15:29;;;;;;;3.90;2.20;;;5.90;99.90;;;;;;5069124;28;20045;-44
2021/12/24 11:18:02;;;;;;;4.72;2.53;;;6.00;99.90;;;;;;5068132;28;20049;-46
2021/12/24 11:20:29;;;;;;;4.80;2.53;;;;;;;;;;5069353;28;20040;-46
2021/12/24 11:23:06;;;;;;;5.28;2.45;;;5.80;99.90;;;;;;5068971;28;20067;-48
2021/12/24 11:25:35;;;;;;;6.57;3.25;;;5.90;99.90;;;;;;5069177;28;20040;-45
2021/12/24 11:28:02;;;;;;;8.40;4.63;;;;;;;;;;5068926;28;20056;-45
2021/12/24 11:30:29;;;;;;;5.63;3.70;;;5.80;99.90;;;;;;5068848;28;20126;-47
2021/12/24 11:32:55;;;;;;;3.92;2.50;;;;;;;;;;5068805;28;20040;-44
2021/12/24 11:35:22;;;;;;;7.30;4.40;;;5.70;99.90;;;;;;5069032;28;20576;-45
2021/12/24 11:37:49;;;;;;;7.28;3.45;;;;;;;;;;5069183;28;20074;-44
2021/12/24 11:40:16;;;;;;;5.15;3.10;;;5.60;99.90;;;;;;5069149;28;20470;-46
2021/12/24 11:42:46;;;;;;;4.60;2.90;;;5.80;99.90;;;;;;5069425;28;20316;-45
2021/12/24 11:45:12;;;;;;;4.43;2.72;;;5.70;99.90;;;;;;5072519;28;20123;-48
2021/12/24 11:47:39;;;;;;;7.60;3.15;;;;;;;;;;5079533;28;20094;-45
2021/12/24 11:50:05;;;;;;;5.32;3.40;;;5.60;99.90;;;;;;5079681;28;20044;-46
2021/12/24 11:52:33;;;;;;;5.43;3.28;;;5.50;99.90;;;;;;5089343;28;20117;-46
2021/12/24 11:55:00;;;;;;;4.80;3.10;;;;;;;;;;5089463;28;20040;-46
2021/12/24 11:57:26;;;;;;;7.82;3.30;;;;;;;;;;5089185;28;20040;-46
2021/12/24 11:59:52;;;;;;;5.47;3.45;;;;;;;;;;5089059;28;20093;-45
2021/12/24 12:02:47;;;;;;;6.90;3.40;;;5.70;99.90;;;;;;5089091;28;20048;-45
2021/12/24 12:05:13;;;;;;;7.40;3.80;;;;;;;;;;5088985;28;20232;-46
2021/12/24 12:07:39;;;;;;;9.18;3.90;;;;;;;;;;5088539;28;20040;-48
2021/12/24 12:10:07;;;;;;;6.40;3.50;;;5.70;99.90;;;;;;5087492;28;20051;-46
2021/12/24 12:12:38;;;;;;;6.28;4.07;;;5.60;99.90;;;;;;5088482;28;20036;-46
2021/12/24 12:15:26;;;;;;;6.43;3.50;;;5.70;99.90;;;;;;5088277;28;20142;-48
2021/12/24 12:17:55;;;;;;;10.95;7.68;;;5.60;99.90;;;;;;5088255;28;20131;-44
2021/12/24 12:20:56;;;;;;;10.68;7.18;;;5.60;99.90;;;;;;5088260;28;20044;-44
2021/12/24 12:26:38;;;;;;;8.93;5.85;;;5.70;99.90;;;;;;5024714;28;20733;-46
2021/12/24 12:29:26;;;;;;;7.30;4.43;;;5.60;99.90;;;;;;5024308;28;20049;-45
2021/12/24 12:31:56;;;;;;;6.55;4.07;;;5.70;99.90;;;;;;5024933;28;20053;-44
2021/12/24 12:34:59;;;;;;;6.75;4.20;;;5.70;99.90;;;;;;5025055;28;20061;-47
2021/12/24 12:37:26;;;;;;;;;;;6.30;99.90;;;;;;4928484;29;20089;-45
2021/12/24 12:40:26;;;;;;;8.05;4.68;;;5.70;99.90;;;;;;4927713;29;19926;-46
2021/12/24 12:42:57;;;;;;;6.78;4.05;;;5.70;99.90;;;;;;4926710;29;20051;-46
2021/12/24 12:45:43;;;;;;;8.48;4.97;;;5.80;99.90;;;;;;4926450;29;20114;-51
2021/12/24 12:48:23;;;;;;;9.52;4.97;;;5.90;99.90;;;;;;4926219;29;20083;-46
2021/12/24 12:51:02;;;;;;;6.80;4.03;;;6.00;99.90;;;;;;4927134;29;20134;-46
2021/12/24 12:53:34;;;;;;;7.15;4.20;;;5.90;99.90;;;;;;4927794;29;20524;-46
2021/12/24 12:56:21;;;;;;;8.93;4.60;;;6.10;99.90;;;;;;4928070;29;20823;-46
2021/12/24 12:59:04;;;;;;;7.20;3.95;;;6.10;99.90;;;;;;4936494;28;20134;-45
2021/12/24 13:01:31;;;;;;;7.85;4.05;;;6.20;99.90;;;;;;5005515;28;20049;-45
2021/12/24 13:04:03;;;;;;;7.55;4.05;;;6.20;99.90;;;;;;5005078;28;20096;-47
2021/12/24 13:06:45;;;;;;;7.03;3.80;;;6.10;99.90;;;;;;5005503;28;20057;-50
2021/12/24 13:09:14;;;;;;;8.70;4.10;;;6.10;99.90;;;;;;5005547;28;20046;-45
2021/12/24 13:11:46;;;;;;;10.98;4.10;;;6.30;99.90;;;;;;5055595;28;20587;-47
2021/12/24 13:14:12;;;;;;;;;;;6.10;99.90;;;;;;5088678;28;20044;-45
2021/12/24 13:17:04;;;;;;;7.75;4.05;;;6.20;99.90;;;;;;5087885;28;20578;-46
2021/12/24 13:22:29;;;;;;;7.40;4.35;;;6.40;99.90;;;;;;5087828;28;20400;-46
2021/12/24 13:25:14;;;;;;;6.57;3.70;;;6.30;99.90;;;;;;5087455;28;20043;-45
2021/12/24 13:27:51;;;;;;;6.57;3.58;;;6.30;99.90;;;;;;5085877;28;20051;-45
2021/12/24 13:30:17;;;;;;;5.00;3.50;;;;;;;;;;5087426;28;20087;-44
2021/12/24 13:32:43;;;;;;;5.38;3.28;;;;;;;;;;5087423;28;20040;-45
2021/12/24 13:35:10;;;;;;;9.38;4.38;;;6.40;99.90;;;;;;5087007;28;20050;-45
2021/12/24 13:37:36;;;;;;;7.20;3.67;;;6.20;99.90;;;;;;5087239;28;20044;-45
2021/12/24 13:40:06;;;;;;;7.82;3.75;;;6.30;99.90;;;;;;5089752;28;20051;-45
2021/12/24 13:42:41;;;;;;;8.88;3.55;;;6.30;99.90;;;;;;5091087;28;20044;-44
2021/12/24 13:45:07;;;;;;;7.82;3.70;;;;;;;;;;5091115;28;20093;-46
2021/12/24 13:47:52;;;;;;;11.07;3.60;;;;;;;;;;5091227;28;20058;-46
2021/12/24 13:55:42;;;;;;;6.15;3.40;;;5.90;99.90;;;;;;5090952;28;20131;-45
2021/12/24 13:58:13;;;;;;;5.97;3.45;;;6.00;99.90;;;;;;5090807;28;20584;-45
2021/12/24 14:00:47;;;;;;;6.00;3.60;;;6.00;99.90;;;;;;5090821;28;20044;-45
2021/12/24 14:03:13;;;;;;;7.55;3.92;;;;;;;;;;5090837;28;20153;-46
2021/12/24 14:05:47;;;;;;;8.18;3.45;;;6.00;99.90;;;;;;5090705;28;20518;-48
2021/12/24 14:08:15;;;;;;;7.55;4.05;;;6.00;99.90;;;;;;5091146;28;20052;-44
2021/12/24 14:10:43;;;;;;;6.70;3.72;;;6.00;99.90;;;;;;5091280;28;20032;-46
2021/12/24 14:13:21;;;;;;;7.75;3.85;;;6.00;99.90;;;;;;5089971;28;20047;-47
2021/12/24 14:24:10;;;;;;;6.78;3.60;;;6.10;99.90;;;;;;5090203;28;20104;-49
2021/12/24 14:26:43;;;;;;;6.57;3.40;;;5.90;99.90;;;;;;5090998;28;20478;-44
2021/12/24 14:29:09;;;;;;;8.75;3.70;;;;;;;;;;5090899;28;20044;-46
2021/12/24 14:31:49;;;;;;;7.53;3.60;;;5.90;99.90;;;;;;5090913;28;20043;-45
2021/12/24 14:34:33;;;;;;;8.45;4.72;;;5.90;99.90;;;;;;5090891;28;20118;-46
2021/12/24 14:37:10;;;;;;;5.30;2.97;;;5.70;99.90;;;;;;5090494;28;20048;-45
2021/12/24 14:39:48;;;;;;;4.20;1.50;;;5.90;99.90;;;;;;5090651;28;20124;-48
2021/12/24 14:42:21;;;;;;;3.70;1.13;;;5.70;99.90;;;;;;5089476;28;20051;-44
2021/12/24 14:44:49;;;;;;;5.47;1.80;;;5.70;99.90;;;;;;5090291;28;20855;-49
2021/12/24 14:47:20;;;;;;;4.18;1.00;;;5.50;99.90;;;;;;5090035;28;20047;-45
2021/12/24 14:49:46;;;;;;;4.20;1.30;;;;;;;;;;5085372;28;20105;-44
2021/12/24 14:52:23;;;;;;;2.75;1.10;;;5.30;99.90;;;;;;5065859;28;20365;-49
2021/12/24 14:55:22;;;;;;;5.63;1.83;;;5.30;99.90;;;;;;5067356;28;20056;-44
2021/12/24 14:57:56;;;;;;;2.08;0.70;;;5.20;99.90;;;;;;5001732;28;20701;-43
2021/12/24 15:00:41;;;;;;;4.10;1.50;;;5.20;99.90;;;;;;5001051;28;20745;-45
2021/12/24 15:03:17;;;;;;;11.00;5.38;;;5.20;99.90;;;;;;5001003;28;20787;-45
2021/12/24 15:05:50;;;;;;;18.92;9.02;;;5.30;99.90;;;;;;5000417;28;20568;-45
2021/12/24 15:08:34;;;;;;;34.92;15.20;;;5.20;99.90;;;;;;5001649;28;20414;-45
2021/12/24 15:11:34;;;;;;;27.27;10.38;;;4.90;99.90;;;;;;5000823;28;20049;-48
2021/12/24 15:14:07;;;;;;;14.90;6.30;;;5.10;99.90;;;;;;4941846;29;20055;-45
2021/12/24 15:16:42;;;;;;;10.10;3.67;;;5.20;99.90;;;;;;4943651;29;20147;-46
2021/12/24 15:19:10;;;;;;;10.88;3.03;;;;;;;;;;4943309;29;20416;-43
2021/12/24 15:21:37;;;;;;;5.13;1.20;;;5.00;99.90;;;;;;4943848;29;20055;-46